Detall de PIREP

Printer-friendly versionPDF version

[2011/05/10 07:26:00]
Flight IATA:CT2112
Pilot Number:041
Company ICAO:CAT
Aircraft Type:B463/A
PAX:18
Departing Airport: LEVC
Destination Airport: LEZL
Alternate Airport:LEMG
Online: VATSIM
Route:ASTRO UM985 YES UN747 BLN
Flight Level:F250
No Slew and time accel
No pause
Crash detect
Detect pilot in Cockpit between each 30 and 45 minutes
07:26 Zero fuel Weight: 72706 Lbs, Fuel Weight: 10207 Lbs
07:26 VATSIM:LEVC 100700Z 03004KT 320V070 6000 FEW018 BKN030 18/16 Q1026 NOSIG
07:26 VATSIM:LEZL 100700Z 03004KT CAVOK 18/13 Q1019 NOSIG
07:26 VOICE CATALONIAN
07:28 Parking Brakes off
07:34 Take-off
07:34 Take off Weight: 82528 Lbs
07:34 Wind: 029º @ 004 Knots Heading: 115º
07:34 POS N39º 29´ 18´´ W000º 28´ 44´´
07:34 Flaps:1 at 187 Knots
07:34 Gear Up: 204 Knots
07:35 Flaps:0 at 240 Knots
07:43 TOC
07:43 Fuel Weight: 8463 Lb
07:49 Wind:221º@002 Knots Heading: 231º Ground Speed: 379 Knots Altitude 25374 ft
08:04 Wind:213º@002 Knots Heading: 257º Ground Speed: 379 Knots Altitude 25285 ft
08:13 TOD
08:13 Fuel Weight: 5957 Lb
08:19 Wind:065º@007 Knots Heading: 257º Ground Speed: 310 Knots Altitude 13274 ft
08:24 Flaps:1 at 202 Knots
08:30 Gear Down: 168 Knots
08:30 Flaps:2 at 172 Knots
08:31 Flaps:3 at 154 Knots
08:33 TouchDown:Rate -232 ft/min Speed: 123 Knots
08:34 Wind:069º@007 Knots Heading: 088º Ground Speed: 076 Knots Altitude 118 ft
08:34 VATSIM:LEZL 100800Z 07007KT CAVOK 22/11 Q1019 NOSIG
08:34 Land
08:34 Wind:069º@007 Knots
08:34 Heading: 090º
08:34 Flight Duration: 01:00
08:34 Landing Weight: 77803 Lbs
08:34 POS N37º 25´ 04´´ W005º 53´ 41´´
08:36 Parking brakes on
08:36 Block to Block Duration: 01:08
08:36 Final Fuel: 5015 Lbls
08:36 Spent Fuel: 5191 Lbls
08:36 Flight Length: 314 NM
08:36 TOD Land Length: 85 NM

Exportar CSV

Powered by Drupal - Modified by Danger4k